KLXT Airport (Lee's Summit Muni) Information

FAA: LXT - ICAO: KLXT

KLXT Airport Location

State Missouri
County Jackson
City Lee'S Summit
KLXT Airport is 3 miles north of Lee'S Summit, MO.
Latitude 38-57-32.7520N
Longitude 094-22-18.8220W
Elevation 1,004ft

KLXT Airport METARs

METAR KLXT 262353Z AUTO 20010KT 10SM CLR 08/M02 A2995 RMK AO2 SLP150 T00831017 10122 20078 58011
Altimeter 29.95"
Temperature 8.3°C (46.9°F)
Wind 200° at 10KT
Clouds Skies are clear.
Visibility 10.0mi
Time observed: 2021-11-26T23:53:00Z

KLXT Airport Details

Status Operational
Activation April 1972
Ownership Public
Usage Public
Chart KANSAS CITY
ATC on-site No
Beacon schedule sunset-sunrise
Beacon color clear green

KLXT Airport Contacts

Owner CITY OF LEE'S SUMMIT
Owner address 220 SE GREEN, P.O. BOX 1600, LEES SUMMIT, MO 64063
Owner phone 816-969-1000
Manager KEITH EISBERG
Manager address 29587 HWY KK, KEYTESVILLE, MO 65261
Manager phone (573) 476-4900

KLXT Airport (Lee's Summit Muni) Radio Frequencies

KLXT (Airport) Radio Frequencies

UNICOM 122.8
Common traffic advisory frequency (CTAF) 122.8